Weather History for 94767 - November, 2013

Change the Weather History Date:

Saturday, November 2, 2013

  Actual Average Record
Temperature  
Mean Temperature 74 °F -  
Max Temperature 87 °F 75 °F - ()
Min Temperature 61 °F 59 °F - ()
Cooling Degree Days 9    
Growing Degree Days 24 (Base 50)    
Moisture  
Dew Point 56 °F    
Average Humidity 56    
Maximum Humidity 82    
Minimum Humidity 19    
Precipitation  
Precipitation 0.00 in 0.13 in - ()
Sea Level Pressure  
Sea Level Pressure 29.98 in    
Wind  
Wind Speed 8 mph ()    
Max Wind Speed 17 mph    
Max Gust Speed -    
Visibility 6.5 miles    
Events      
T = Trace of Precipitation, MM = Missing Value Source: Averaged Metar Reports

Daily Weather History Graph

Daily Weather History Graph

Search for Another Location

Airport or City:

Trip Planner

Search our weather history database for the weather conditions in past years. The results will help you decide how hot, cold, wet, or windy it might be!

Date:

Astronomy

Nov. 02, 2013 Rise Set
Actual Time 5:54 AM AEDT 7:24 PM AEDT
Civil Twilight 5:27 AM AEDT 7:50 PM AEDT
Nautical Twilight 4:55 AM AEDT 8:22 PM AEDT
Astronomical Twilight 4:22 AM AEDT 8:56 PM AEDT
Moon 4:46 AM AEDT (11/2) 6:02 PM AEDT (11/2)
Length of Visible Light 14h 23m
Length of Day
13h 30m
Waning Crescent, 3% of the Moon is Illuminated
Nov 2
Waning Crescent
Nov 3
New
Nov 10
First Quarter
Nov 18
Full
Nov 26
Last Quarter

Hourly Weather History & Observations

Time (AEDT) Temp. Heat Index Dew Point Humidity Pressure Visibility Wind Dir Wind Speed Gust Speed Precip Events Conditions
12:00 AM 67 °F - 57 °F 62% 30.13 in 16 mi North 11.5 mph - -   Partly Cloudy
12:00 AM 66.2 °F - 57.2 °F 73% 30.12 in 6.2 mi North 11.5 mph - N/A   Partly Cloudy
1:00 AM 65 °F - 57 °F 69% 30.11 in - NW 5.8 mph - -  
1:00 AM 64.4 °F - 57.2 °F 77% 30.09 in - NW 5.8 mph - N/A   Clear
1:30 AM 64.4 °F - 57.2 °F 77% 30.09 in - WNW 5.8 mph - N/A   Clear
2:00 AM 64 °F - 57 °F 72% 30.08 in - NNW 6.9 mph - -  
2:00 AM 64.4 °F - 57.2 °F 77% 30.06 in - NNW 6.9 mph - N/A   Clear
2:30 AM 64.4 °F - 57.2 °F 77% 30.06 in - North 5.8 mph - N/A   Clear
3:00 AM 64 °F - 57 °F 70% 30.06 in 16 mi NW 5.8 mph - -   Haze
3:00 AM 64.4 °F - 57.2 °F 77% 30.04 in - NW 5.8 mph - N/A   Clear
3:30 AM 64.4 °F - 57.2 °F 77% 30.04 in - NW 4.6 mph - N/A   Clear
4:00 AM 63 °F - 57 °F 75% 30.05 in - NW 4.6 mph - -  
4:00 AM 62.6 °F - 57.2 °F 82% 30.04 in - NW 4.6 mph - N/A   Clear
4:30 AM 62.6 °F - 57.2 °F 82% 30.04 in - NW 5.8 mph - N/A   Clear
5:00 AM 62 °F - 56 °F 76% 30.04 in - NNW 6.9 mph - -  
5:00 AM 62.6 °F - 57.2 °F 82% 30.04 in - NNW 6.9 mph - N/A   Clear
5:30 AM 60.8 °F - 55.4 °F 82% 30.04 in - NW 6.9 mph - N/A   Clear
6:00 AM 63 °F - 56 °F 70% 30.05 in 16 mi NW 8.1 mph - -   Haze
6:00 AM 62.6 °F - 55.4 °F 77% 30.04 in - NW 8.1 mph - N/A   Clear
6:30 AM 62.6 °F - 55.4 °F 77% 30.04 in - NW 8.1 mph - N/A   Clear
7:00 AM 62 °F - 56 °F 75% 30.06 in - WNW 6.9 mph - -  
7:00 AM 62.6 °F - 55.4 °F 77% 30.04 in - WNW 6.9 mph - N/A   Clear
7:30 AM 64.4 °F - 57.2 °F 77% 30.06 in - WNW 6.9 mph - N/A   Clear
8:00 AM 66 °F - 56 °F 62% 30.06 in - NW 6.9 mph - -  
8:00 AM 66.2 °F - 55.4 °F 68% 30.06 in - NW 6.9 mph - N/A   Clear
8:30 AM 68.0 °F - 55.4 °F 64% 30.06 in - NW 6.9 mph - N/A   Clear
9:00 AM 69 °F - 56 °F 55% 30.06 in 7 mi NW 6.9 mph - -   Haze
9:00 AM 69.8 °F - 57.2 °F 64% 30.06 in - NW 6.9 mph - N/A   Clear
9:30 AM 73.4 °F - 55.4 °F 53% 30.04 in 5.0 mi NW 6.9 mph - N/A   Unknown
9:42 AM 73.4 °F - 55.4 °F 53% 30.04 in 3.7 mi NNW 6.9 mph - N/A   Unknown
10:00 AM 76 °F - 56 °F 39% 30.04 in - NNW 9.2 mph - -  
10:00 AM 75.2 °F - 55.4 °F 50% 30.04 in 3.7 mi NNW 9.2 mph - N/A   Unknown
10:30 AM 77.0 °F - 55.4 °F 47% 30.04 in 4.3 mi WNW 9.2 mph - N/A   Unknown
11:00 AM 78 °F - 55 °F 35% 30.02 in - NW 6.9 mph - -  
11:00 AM 78.8 °F - 55.4 °F 44% 30.01 in 4.3 mi NW 6.9 mph - N/A   Unknown
11:30 AM 82.4 °F - 51.8 °F 35% 29.98 in 4.3 mi NNE 6.9 mph - N/A   Unknown
12:00 PM 84 °F - 48 °F 19% 29.98 in 3 mi NNE 5.8 mph - -   Smoke
12:00 PM 84.2 °F - 48.2 °F 29% 29.98 in 3.1 mi NNE 5.8 mph - N/A   Smoke
12:30 PM 82.4 °F 81.7 °F 55.4 °F 39% 29.95 in 1.2 mi East 11.5 mph - N/A   Smoke
1:00 PM 83 °F - 49 °F 20% 29.94 in - NE 11.5 mph - -  
1:00 PM 82.4 °F - 48.2 °F 30% 29.92 in 2.2 mi NE 11.5 mph - N/A   Smoke
1:30 PM 87.8 °F - 42.8 °F 21% 29.92 in 2.5 mi NE 8.1 mph - N/A   Smoke
2:00 PM 85 °F - 52 °F 22% 29.91 in - NE 13.8 mph - -  
2:00 PM 84.2 °F - 51.8 °F 33% 29.89 in 3.1 mi NE 13.8 mph - N/A   Smoke
2:30 PM 84.2 °F - 41.0 °F 22% 29.89 in 5.6 mi NE 15.0 mph - N/A   Unknown
3:00 PM 83 °F - 57 °F 30% 29.89 in 9 mi ENE 15.0 mph - -   Smoke
3:00 PM 82.4 °F 82.0 °F 57.2 °F 42% 29.89 in - ENE 15.0 mph - N/A   Clear
3:30 PM 78.8 °F - 59.0 °F 51% 29.86 in - NE 17.3 mph - N/A   Clear
4:00 PM 79 °F - 58 °F 38% 29.88 in - NE 17.3 mph - -  
4:00 PM 78.8 °F - 57.2 °F 47% 29.86 in - NE 17.3 mph - N/A   Clear
4:30 PM 78.8 °F - 57.2 °F 47% 29.86 in - NNE 15.0 mph - N/A   Clear
5:00 PM 78 °F - 58 °F 40% 29.88 in - NNE 13.8 mph - -  
5:00 PM 78.8 °F - 57.2 °F 47% 29.86 in - NNE 13.8 mph - N/A   Clear
5:30 PM 77.0 °F - 57.2 °F 50% 29.86 in - NNE 16.1 mph - N/A   Clear
6:00 PM 77 °F - 58 °F 43% 29.89 in 9 mi NNE 15.0 mph - -   Smoke
6:00 PM 77.0 °F - 59.0 °F 54% 29.89 in - NNE 15.0 mph - N/A   Clear
6:30 PM 75.2 °F - 59.0 °F 57% 29.89 in - NNE 13.8 mph - N/A   Clear
7:00 PM 76 °F - 58 °F 43% 29.90 in - NNE 13.8 mph - -  
7:00 PM 77.0 °F - 57.2 °F 50% 29.89 in - NNE 13.8 mph - N/A   Clear
7:30 PM 77.0 °F - 55.4 °F 47% 29.89 in - North 12.7 mph - N/A   Clear
8:00 PM 75 °F - 55 °F 40% 29.92 in - NE 8.1 mph - -  
8:00 PM 75.2 °F - 55.4 °F 50% 29.92 in - NE 8.1 mph - N/A   Clear
8:30 PM 77.0 °F - 53.6 °F 44% 29.92 in - NE 6.9 mph - N/A   Clear
9:00 PM 77 °F - 54 °F 33% 29.92 in 12 mi NNE 6.9 mph - -   Partly Cloudy
9:00 PM 77.0 °F - 53.6 °F 44% 29.92 in - NNE 6.9 mph - N/A   Clear
9:30 PM 73.4 °F - 57.2 °F 57% 29.92 in - East 4.6 mph - N/A   Clear
10:00 PM 71 °F - 64 °F 73% 29.94 in - SSE 1.2 mph - -  
10:00 PM 71.6 °F - 64.4 °F 78% 29.92 in - SSE 1.2 mph - N/A   Clear
11:00 PM 71 °F - 60 °F 59% 29.95 in - WSW 6.9 mph - -  
11:00 PM 71.6 °F - 59.0 °F 64% 29.95 in - WSW 6.9 mph - N/A   Clear
11:30 PM 71.6 °F - 60.8 °F 69% 29.92 in - Calm Calm - N/A   Clear